Time;durP1;ratioP1;P1;durP2;ratioP2;P2;SDS_P1;SDS_P2;PMS_P1;PMS_P2;Temp;Humidity;BMP_temperature;BMP_pressure;BME280_temperature;BME280_humidity;BME280_pressure;Samples;Min_cycle;Max_cycle;Signal;HPM_P1;HPM_P2
2021/10/04 00:00:33;;;;;;;3.30;1.50;;;16.40;99.90;;;;;;4999939;28;20472;-79
2021/10/04 00:03:00;;;;;;;3.33;1.50;;;16.50;99.90;;;;;;4999494;28;20474;-79
2021/10/04 00:05:27;;;;;;;4.13;1.47;;;16.50;99.90;;;;;;4999385;28;20456;-82
2021/10/04 00:07:54;;;;;;;4.37;1.70;;;16.60;99.90;;;;;;4997390;28;20457;-81
2021/10/04 00:10:21;;;;;;;4.53;1.87;;;16.60;99.90;;;;;;4996605;28;20471;-82
2021/10/04 00:12:48;;;;;;;3.17;1.30;;;16.70;99.90;;;;;;5004009;28;20458;-79
2021/10/04 00:15:19;;;;;;;4.07;1.80;;;16.80;99.90;;;;;;5007160;28;20464;-81
2021/10/04 00:17:47;;;;;;;3.13;1.50;;;16.80;99.90;;;;;;4997341;28;20450;-81
2021/10/04 00:20:16;;;;;;;3.53;1.37;;;16.70;99.90;;;;;;4997199;28;20448;-81
2021/10/04 00:22:43;;;;;;;3.70;1.60;;;16.50;99.90;;;;;;4997731;28;20484;-81
2021/10/04 00:25:10;;;;;;;3.13;1.50;;;16.50;99.90;;;;;;4997267;28;20761;-81
2021/10/04 00:27:37;;;;;;;3.20;1.60;;;16.50;99.90;;;;;;4997439;28;20463;-81
2021/10/04 00:30:06;;;;;;;3.40;1.67;;;16.50;99.90;;;;;;4997866;28;20464;-80
2021/10/04 00:32:36;;;;;;;3.57;1.70;;;16.30;99.90;;;;;;5017813;28;20536;-80
2021/10/04 00:35:02;;;;;;;3.90;1.83;;;16.30;99.90;;;;;;5017866;28;20447;-80
2021/10/04 00:37:29;;;;;;;2.93;1.37;;;16.20;99.90;;;;;;5017836;28;20474;-80
2021/10/04 00:39:56;;;;;;;3.57;1.40;;;16.10;99.90;;;;;;5019437;28;20936;-80
2021/10/04 00:42:24;;;;;;;3.17;1.40;;;16.10;99.90;;;;;;5018068;28;20483;-81
2021/10/04 00:44:51;;;;;;;2.87;1.47;;;16.10;99.90;;;;;;5017195;28;20509;-81
2021/10/04 00:47:18;;;;;;;2.90;1.30;;;16.00;99.90;;;;;;5015577;28;20434;-81
2021/10/04 00:49:46;;;;;;;2.87;1.47;;;16.20;99.90;;;;;;5016697;28;20460;-81
2021/10/04 00:52:14;;;;;;;3.47;1.40;;;16.40;99.90;;;;;;5017013;28;20465;-81
2021/10/04 00:54:40;;;;;;;3.20;1.30;;;16.40;99.90;;;;;;5017061;28;20828;-81
2021/10/04 00:57:07;;;;;;;3.87;1.40;;;16.30;99.90;;;;;;5017167;28;20535;-80
2021/10/04 00:59:35;;;;;;;2.80;1.20;;;16.50;99.90;;;;;;5017729;28;20955;-80
2021/10/04 01:02:02;;;;;;;2.90;1.20;;;16.60;99.90;;;;;;5020504;28;20496;-79
2021/10/04 01:04:28;;;;;;;3.20;1.20;;;16.60;99.90;;;;;;5016849;28;20465;-81
2021/10/04 01:06:58;;;;;;;3.80;1.63;;;16.40;99.90;;;;;;4999698;28;20452;-81
2021/10/04 01:09:25;;;;;;;4.00;1.97;;;16.20;99.90;;;;;;4999307;28;20438;-81
2021/10/04 01:11:53;;;;;;;2.93;1.27;;;16.10;99.90;;;;;;4999228;28;20558;-81
2021/10/04 01:14:20;;;;;;;3.00;1.20;;;16.40;99.90;;;;;;4999704;28;20459;-81
2021/10/04 01:16:47;;;;;;;3.63;1.17;;;16.30;99.90;;;;;;4999202;28;21021;-81
2021/10/04 01:19:15;;;;;;;3.13;1.20;;;16.30;99.90;;;;;;4999833;28;20504;-81
2021/10/04 01:21:43;;;;;;;2.90;1.10;;;16.50;99.90;;;;;;4999911;28;20496;-81
2021/10/04 01:24:11;;;;;;;3.00;1.30;;;16.50;99.90;;;;;;5001990;28;20453;-80
2021/10/04 01:26:38;;;;;;;3.10;1.30;;;16.50;99.90;;;;;;4999289;28;20952;-80
2021/10/04 01:29:05;;;;;;;3.77;1.77;;;16.30;99.90;;;;;;4999308;28;20430;-80
2021/10/04 01:31:32;;;;;;;5.00;1.63;;;16.30;99.90;;;;;;5037670;23;20499;-85
2021/10/04 01:34:00;;;;;;;3.00;1.40;;;16.20;99.90;;;;;;5030326;28;20427;-85
2021/10/04 01:36:29;;;;;;;3.30;1.47;;;16.20;99.90;;;;;;5026417;28;20497;-86
2021/10/04 01:38:58;;;;;;;3.10;1.10;;;16.30;99.90;;;;;;5025499;28;20457;-86
2021/10/04 01:41:26;;;;;;;2.90;1.10;;;16.40;99.90;;;;;;5036028;28;20447;-85
2021/10/04 01:43:54;;;;;;;3.87;1.80;;;16.20;99.90;;;;;;5045949;28;20514;-85
2021/10/04 01:46:21;;;;;;;5.10;1.70;;;16.10;99.90;;;;;;5045273;28;20514;-85
2021/10/04 01:48:48;;;;;;;3.23;1.40;;;16.00;99.90;;;;;;5046806;28;20493;-85
2021/10/04 01:51:15;;;;;;;3.60;1.33;;;15.90;99.90;;;;;;5046158;28;20472;-85
2021/10/04 01:53:42;;;;;;;4.10;1.33;;;15.90;99.90;;;;;;5052204;28;20429;-85
2021/10/04 01:56:11;;;;;;;4.13;1.10;;;16.10;99.90;;;;;;5030947;28;20764;-85
2021/10/04 01:58:38;;;;;;;4.70;1.13;;;16.10;99.90;;;;;;5026718;28;20482;-85
2021/10/04 02:01:06;;;;;;;2.63;0.80;;;16.00;99.90;;;;;;5026226;28;20587;-85
2021/10/04 02:03:33;;;;;;;2.43;0.80;;;15.90;99.90;;;;;;5025994;28;20490;-85
2021/10/04 02:06:00;;;;;;;3.10;1.23;;;15.80;99.90;;;;;;5025639;28;20524;-85
2021/10/04 02:08:27;;;;;;;3.53;1.20;;;15.80;99.90;;;;;;5025151;28;20535;-85
2021/10/04 02:10:54;;;;;;;2.87;1.17;;;15.80;99.90;;;;;;5027303;28;20445;-85
2021/10/04 02:13:24;;;;;;;3.53;1.30;;;15.80;99.90;;;;;;5053512;28;20510;-85
2021/10/04 02:15:51;;;;;;;3.10;1.30;;;15.70;99.90;;;;;;5045922;28;20481;-85
2021/10/04 02:18:18;;;;;;;3.63;1.13;;;15.70;99.90;;;;;;5045240;28;20482;-85
2021/10/04 02:20:47;;;;;;;5.03;0.90;;;15.80;99.90;;;;;;5044737;28;20879;-85
2021/10/04 02:23:15;;;;;;;3.03;1.00;;;15.80;99.90;;;;;;5045178;28;20469;-86
2021/10/04 02:25:44;;;;;;;2.90;1.30;;;15.50;99.90;;;;;;5046099;28;20515;-85
2021/10/04 02:28:12;;;;;;;3.30;1.17;;;15.40;99.90;;;;;;5042834;28;20522;-85
2021/10/04 02:30:41;;;;;;;2.50;1.00;;;15.40;99.90;;;;;;5033283;28;20484;-85
2021/10/04 02:33:08;;;;;;;2.60;0.93;;;15.70;99.90;;;;;;5029250;28;20483;-85
2021/10/04 02:35:36;;;;;;;2.97;0.97;;;15.50;99.90;;;;;;5025070;28;20468;-85
2021/10/04 02:38:03;;;;;;;2.80;0.90;;;15.60;99.90;;;;;;5024680;28;20956;-85
2021/10/04 02:40:30;;;;;;;2.67;1.00;;;15.60;99.90;;;;;;5031327;28;20468;-85
2021/10/04 02:42:58;;;;;;;2.47;0.77;;;15.40;99.90;;;;;;5036735;28;20460;-85
2021/10/04 02:45:26;;;;;;;3.13;1.20;;;15.30;99.90;;;;;;5044311;28;20525;-85
2021/10/04 02:47:57;;;;;;;2.90;0.83;;;15.20;99.90;;;;;;5056570;28;20453;-85
2021/10/04 02:50:26;;;;;;;3.00;1.10;;;15.10;99.90;;;;;;5056746;28;20465;-85
2021/10/04 02:52:53;;;;;;;2.50;0.90;;;15.10;99.90;;;;;;5052394;28;20445;-85
2021/10/04 02:55:20;;;;;;;2.93;1.07;;;15.10;99.90;;;;;;5052115;28;20513;-85
2021/10/04 02:57:48;;;;;;;2.47;0.90;;;15.20;99.90;;;;;;5045486;28;20431;-85
2021/10/04 03:00:16;;;;;;;3.00;1.00;;;15.40;99.90;;;;;;5046877;28;20442;-85
2021/10/04 03:02:43;;;;;;;3.00;1.00;;;15.50;99.90;;;;;;5043136;28;20507;-85
2021/10/04 03:05:11;;;;;;;2.53;1.00;;;15.50;99.90;;;;;;5045545;28;20545;-85
2021/10/04 03:07:39;;;;;;;2.80;1.17;;;15.30;99.90;;;;;;5047321;28;20432;-85
2021/10/04 03:10:07;;;;;;;2.60;0.87;;;15.30;99.90;;;;;;5045154;28;21009;-85
2021/10/04 03:12:34;;;;;;;2.87;0.90;;;15.30;99.90;;;;;;5044341;28;20518;-85
2021/10/04 03:15:01;;;;;;;2.67;0.93;;;15.30;99.90;;;;;;5044092;28;20412;-85
2021/10/04 03:17:28;;;;;;;2.60;0.90;;;15.10;99.90;;;;;;5042729;28;20512;-85
2021/10/04 03:19:55;;;;;;;2.70;1.03;;;15.00;99.90;;;;;;5042580;28;20460;-85
2021/10/04 03:22:23;;;;;;;2.80;1.00;;;14.90;99.90;;;;;;5043488;28;20561;-85
2021/10/04 03:24:50;;;;;;;2.93;1.20;;;14.90;99.90;;;;;;5043949;28;20454;-85
2021/10/04 03:27:17;;;;;;;2.77;1.10;;;15.00;99.90;;;;;;5044195;28;20560;-85
2021/10/04 03:29:44;;;;;;;2.97;1.00;;;14.90;99.90;;;;;;5044134;28;20468;-85
2021/10/04 03:32:10;;;;;;;2.90;1.10;;;14.90;99.90;;;;;;5043074;28;20480;-85
2021/10/04 03:34:37;;;;;;;3.00;1.07;;;14.80;99.90;;;;;;5042909;28;20545;-86
2021/10/04 03:37:04;;;;;;;2.90;1.00;;;14.80;99.90;;;;;;5042151;28;20428;-85
2021/10/04 03:39:32;;;;;;;2.73;1.13;;;14.70;99.90;;;;;;5043664;28;20446;-85
2021/10/04 03:41:59;;;;;;;2.97;1.10;;;14.60;99.90;;;;;;5043513;28;20444;-85
2021/10/04 03:44:26;;;;;;;2.50;0.90;;;14.60;99.90;;;;;;5043521;28;20434;-85
2021/10/04 03:46:53;;;;;;;3.67;1.17;;;14.70;99.90;;;;;;5042952;28;20452;-85
2021/10/04 03:49:20;;;;;;;9.20;1.13;;;14.60;99.90;;;;;;5043339;28;20517;-85
2021/10/04 03:51:47;;;;;;;3.07;0.93;;;14.50;99.90;;;;;;5045873;28;20651;-85
2021/10/04 03:54:13;;;;;;;2.73;1.07;;;14.50;99.90;;;;;;5046065;28;20521;-85
2021/10/04 03:56:42;;;;;;;2.50;0.90;;;14.50;99.90;;;;;;5046006;28;20497;-85
2021/10/04 03:59:08;;;;;;;2.40;0.90;;;14.50;99.90;;;;;;5045571;28;20540;-85
2021/10/04 04:01:35;;;;;;;2.90;1.00;;;14.50;99.90;;;;;;5043520;28;20451;-85
2021/10/04 04:04:02;;;;;;;2.40;0.90;;;14.40;99.90;;;;;;5042954;28;20468;-85
2021/10/04 04:06:29;;;;;;;3.00;1.17;;;14.50;99.90;;;;;;5043623;28;20452;-85
2021/10/04 04:08:56;;;;;;;2.70;0.90;;;14.50;99.90;;;;;;5041676;28;20636;-85
2021/10/04 04:11:23;;;;;;;2.40;0.70;;;14.60;99.90;;;;;;5042358;28;20536;-85
2021/10/04 04:13:51;;;;;;;3.50;1.17;;;14.60;99.90;;;;;;5042890;28;20509;-85
2021/10/04 04:16:18;;;;;;;3.30;1.20;;;14.70;99.90;;;;;;5043597;28;20521;-85
2021/10/04 04:18:44;;;;;;;3.00;1.23;;;14.60;99.90;;;;;;5045095;28;20427;-85
2021/10/04 04:21:11;;;;;;;4.07;2.03;;;14.60;99.90;;;;;;5043825;28;20440;-85
2021/10/04 04:23:38;;;;;;;2.90;0.90;;;14.60;99.90;;;;;;5044078;28;20461;-85
2021/10/04 04:26:05;;;;;;;2.73;1.30;;;14.60;99.90;;;;;;5041612;28;20534;-85
2021/10/04 04:28:32;;;;;;;2.90;0.97;;;14.60;99.90;;;;;;5042714;28;20516;-85
2021/10/04 04:31:01;;;;;;;3.83;1.20;;;14.60;99.90;;;;;;5042828;28;20459;-85
2021/10/04 04:33:27;;;;;;;4.10;1.37;;;14.70;99.90;;;;;;5042500;28;20920;-85
2021/10/04 04:35:54;;;;;;;3.53;0.90;;;14.70;99.90;;;;;;5045925;28;20427;-85
2021/10/04 04:38:21;;;;;;;3.70;0.90;;;14.60;99.90;;;;;;5046327;28;20545;-85
2021/10/04 04:40:48;;;;;;;4.00;1.13;;;14.60;99.90;;;;;;5046026;28;21052;-85
2021/10/04 04:43:15;;;;;;;5.17;1.77;;;14.50;99.90;;;;;;5044364;28;21039;-85
2021/10/04 04:45:42;;;;;;;2.70;1.00;;;14.60;99.90;;;;;;5047371;28;20449;-85
2021/10/04 04:48:10;;;;;;;4.73;1.30;;;14.70;99.90;;;;;;5046924;28;20448;-85
2021/10/04 04:50:37;;;;;;;3.37;1.30;;;14.80;99.90;;;;;;5046781;28;20447;-85
2021/10/04 04:53:04;;;;;;;2.60;1.10;;;14.70;99.90;;;;;;5056156;28;20436;-85
2021/10/04 04:55:31;;;;;;;2.97;1.33;;;14.80;99.90;;;;;;5057720;28;20464;-85
2021/10/04 04:57:58;;;;;;;3.40;1.40;;;14.70;99.90;;;;;;5051460;28;20914;-85
2021/10/04 05:00:25;;;;;;;4.20;1.30;;;14.70;99.90;;;;;;5047585;28;20481;-85
2021/10/04 05:02:52;;;;;;;3.00;1.30;;;14.80;99.90;;;;;;5046318;28;20462;-85
2021/10/04 05:05:20;;;;;;;4.23;1.50;;;14.80;99.90;;;;;;5046735;28;20428;-85
2021/10/04 05:07:47;;;;;;;3.07;1.23;;;14.90;99.90;;;;;;5048896;28;20445;-85
2021/10/04 05:10:14;;;;;;;3.67;1.40;;;14.80;99.90;;;;;;5053084;28;20468;-84
2021/10/04 05:12:42;;;;;;;3.13;1.33;;;15.00;99.90;;;;;;5046865;28;20421;-85
2021/10/04 05:15:09;;;;;;;3.00;1.60;;;14.90;99.90;;;;;;5046253;28;20450;-85
2021/10/04 05:17:37;;;;;;;4.70;1.73;;;14.70;99.90;;;;;;5047932;28;20463;-85
2021/10/04 05:20:05;;;;;;;3.70;1.50;;;14.70;99.90;;;;;;5046923;28;20478;-85
2021/10/04 05:22:35;;;;;;;3.97;1.87;;;14.80;99.90;;;;;;5046345;28;20523;-84
2021/10/04 05:25:02;;;;;;;3.83;1.47;;;14.70;99.90;;;;;;5052849;28;20449;-84
2021/10/04 05:27:29;;;;;;;5.23;1.30;;;14.80;99.90;;;;;;5056603;28;20442;-85
2021/10/04 05:29:55;;;;;;;4.33;1.73;;;15.00;99.90;;;;;;5057313;28;20451;-85
2021/10/04 05:32:22;;;;;;;3.20;1.57;;;15.10;99.90;;;;;;5051413;28;20568;-84
2021/10/04 05:34:49;;;;;;;2.70;1.40;;;14.90;99.90;;;;;;5055496;28;20474;-84
2021/10/04 05:37:16;;;;;;;3.60;1.83;;;14.90;99.90;;;;;;5050829;28;20424;-85
2021/10/04 05:39:44;;;;;;;4.97;1.93;;;14.80;99.90;;;;;;5046649;28;20532;-84
2021/10/04 05:42:11;;;;;;;3.70;1.63;;;14.80;99.90;;;;;;5045739;28;20440;-85
2021/10/04 05:44:38;;;;;;;3.50;1.77;;;14.60;99.90;;;;;;5046246;28;20555;-85
2021/10/04 05:47:06;;;;;;;4.77;1.70;;;14.60;99.90;;;;;;5047460;28;20431;-85
2021/10/04 05:49:32;;;;;;;3.83;1.63;;;14.50;99.90;;;;;;5044519;28;20464;-85
2021/10/04 05:51:59;;;;;;;3.57;1.50;;;14.50;99.90;;;;;;5045298;28;20475;-85
2021/10/04 05:54:26;;;;;;;3.70;1.60;;;14.50;99.90;;;;;;5045778;28;20447;-84
2021/10/04 05:56:54;;;;;;;3.07;1.47;;;14.60;99.90;;;;;;5045599;28;20491;-84
2021/10/04 05:59:21;;;;;;;3.20;1.40;;;14.80;99.90;;;;;;5045496;28;20551;-85
2021/10/04 06:01:48;;;;;;;4.93;2.20;;;14.80;99.90;;;;;;5046065;28;20521;-85
2021/10/04 06:04:15;;;;;;;4.97;1.80;;;14.80;99.90;;;;;;5045304;28;20561;-84
2021/10/04 06:06:41;;;;;;;3.87;1.83;;;14.80;99.90;;;;;;5049729;28;20425;-84
2021/10/04 06:09:08;;;;;;;3.27;1.43;;;14.60;99.90;;;;;;5045966;28;20515;-84
2021/10/04 06:11:35;;;;;;;3.43;1.60;;;14.40;99.90;;;;;;5051350;28;20497;-84
2021/10/04 06:14:04;;;;;;;7.30;2.70;;;14.30;99.90;;;;;;5053945;28;20525;-84
2021/10/04 06:16:30;;;;;;;4.17;1.97;;;14.20;99.90;;;;;;5044895;28;20431;-84
2021/10/04 06:18:57;;;;;;;5.80;2.23;;;14.20;99.90;;;;;;5040517;28;20848;-84
2021/10/04 06:21:24;;;;;;;4.00;1.70;;;14.20;99.90;;;;;;5041104;28;20480;-84
2021/10/04 06:23:51;;;;;;;4.40;1.77;;;14.20;99.90;;;;;;5039882;28;20510;-84
2021/10/04 06:26:18;;;;;;;5.83;1.43;;;14.20;99.90;;;;;;5042617;28;20428;-84
2021/10/04 06:28:44;;;;;;;3.00;1.47;;;14.20;99.90;;;;;;5041530;28;20430;-84
2021/10/04 06:31:13;;;;;;;4.33;1.60;;;14.30;99.90;;;;;;5041167;28;20477;-84
2021/10/04 06:33:39;;;;;;;4.00;1.57;;;14.50;99.90;;;;;;5041032;28;20427;-84
2021/10/04 06:36:06;;;;;;;3.63;1.73;;;14.60;99.90;;;;;;5042769;28;20902;-84
2021/10/04 06:38:33;;;;;;;3.77;1.30;;;14.50;99.90;;;;;;5051216;28;20452;-84
2021/10/04 06:41:00;;;;;;;4.20;1.73;;;14.70;99.90;;;;;;5029590;28;20508;-85
2021/10/04 06:43:27;;;;;;;4.43;1.50;;;14.60;99.90;;;;;;5028637;28;20461;-84
2021/10/04 06:45:54;;;;;;;3.60;1.47;;;14.70;99.90;;;;;;5029037;28;20820;-85
2021/10/04 06:48:22;;;;;;;3.93;1.50;;;14.70;99.90;;;;;;5026104;28;20449;-85
2021/10/04 06:50:49;;;;;;;2.77;1.20;;;14.90;99.90;;;;;;5025930;28;20474;-84
2021/10/04 06:53:15;;;;;;;3.10;1.40;;;15.10;99.90;;;;;;5025396;28;20424;-84
2021/10/04 06:55:45;;;;;;;3.73;1.70;;;15.30;99.90;;;;;;5025811;28;20431;-84
2021/10/04 06:58:12;;;;;;;5.37;1.83;;;15.30;99.90;;;;;;5024032;28;20502;-84
2021/10/04 07:00:38;;;;;;;4.50;1.70;;;15.20;99.90;;;;;;5026033;28;20540;-84
2021/10/04 07:03:05;;;;;;;3.40;1.60;;;14.90;99.90;;;;;;5027603;28;20454;-84
2021/10/04 07:05:34;;;;;;;3.63;1.77;;;15.00;99.90;;;;;;5024801;28;20465;-84
2021/10/04 07:08:01;;;;;;;7.33;2.20;;;15.00;99.90;;;;;;5024120;28;20425;-84
2021/10/04 07:10:28;;;;;;;3.70;1.60;;;15.10;99.90;;;;;;5023425;28;20470;-84
2021/10/04 07:12:55;;;;;;;3.00;1.30;;;15.00;99.90;;;;;;5025315;28;20421;-85
2021/10/04 07:15:22;;;;;;;5.80;1.67;;;14.90;99.90;;;;;;5027996;28;20986;-85
2021/10/04 07:17:49;;;;;;;3.87;1.90;;;15.00;99.90;;;;;;5036270;28;20433;-85
2021/10/04 07:20:16;;;;;;;3.50;1.97;;;14.90;99.90;;;;;;5029085;28;20421;-85
2021/10/04 07:22:44;;;;;;;3.80;1.97;;;14.80;99.90;;;;;;5040788;28;20428;-85
2021/10/04 07:25:12;;;;;;;4.63;2.50;;;14.90;99.90;;;;;;5043500;28;20489;-85
2021/10/04 07:27:41;;;;;;;3.97;2.67;;;15.10;99.90;;;;;;5044301;28;20507;-85
2021/10/04 07:30:09;;;;;;;4.40;2.50;;;15.10;99.90;;;;;;5042089;28;20440;-85
2021/10/04 07:32:36;;;;;;;5.17;3.30;;;15.20;99.90;;;;;;5031718;23;20578;-81
2021/10/04 07:35:05;;;;;;;5.20;2.90;;;15.10;99.90;;;;;;4999144;28;20531;-81
2021/10/04 07:37:32;;;;;;;5.77;3.10;;;15.30;99.90;;;;;;4999694;28;20522;-81
2021/10/04 07:40:01;;;;;;;5.00;3.80;;;15.40;99.90;;;;;;4999006;28;20562;-80
2021/10/04 07:42:28;;;;;;;5.07;4.03;;;15.50;99.90;;;;;;4999168;28;20450;-81
2021/10/04 07:44:55;;;;;;;6.57;4.60;;;15.30;99.90;;;;;;4998851;28;20482;-81
2021/10/04 07:47:22;;;;;;;6.13;3.90;;;15.10;99.90;;;;;;4998029;28;20430;-81
2021/10/04 07:49:49;;;;;;;5.87;3.40;;;15.00;99.90;;;;;;4997650;28;20455;-80
2021/10/04 07:52:15;;;;;;;5.53;3.27;;;15.00;99.90;;;;;;4999677;28;20526;-81
2021/10/04 07:54:43;;;;;;;6.47;3.63;;;15.30;99.90;;;;;;4999428;28;20493;-80
2021/10/04 07:57:13;;;;;;;7.93;3.97;;;15.20;99.90;;;;;;5001515;28;20432;-78
2021/10/04 07:59:40;;;;;;;6.60;4.90;;;15.00;99.90;;;;;;5011317;28;20491;-79
2021/10/04 08:02:08;;;;;;;4.90;3.30;;;15.00;99.90;;;;;;5000823;28;20526;-80
2021/10/04 08:04:34;;;;;;;5.93;3.57;;;15.10;99.90;;;;;;4997534;28;20495;-81
2021/10/04 08:07:01;;;;;;;5.17;3.23;;;15.00;99.90;;;;;;4996450;28;20425;-80
2021/10/04 08:09:28;;;;;;;4.03;2.30;;;14.90;99.90;;;;;;4999800;28;20430;-80
2021/10/04 08:11:55;;;;;;;5.27;4.00;;;14.80;99.90;;;;;;5002578;28;20452;-80
2021/10/04 08:14:24;;;;;;;7.90;7.10;;;14.70;99.90;;;;;;5002756;28;20437;-80
2021/10/04 08:16:51;;;;;;;5.23;2.73;;;14.70;99.90;;;;;;5002589;28;20422;-80
2021/10/04 08:19:18;;;;;;;7.77;3.00;;;14.60;99.90;;;;;;5002812;28;20429;-81
2021/10/04 08:21:45;;;;;;;5.77;2.93;;;14.40;99.90;;;;;;5001421;28;20449;-80
2021/10/04 08:24:12;;;;;;;4.37;3.07;;;14.40;99.90;;;;;;5001910;28;20567;-82
2021/10/04 08:26:39;;;;;;;5.47;3.53;;;14.50;99.90;;;;;;5001319;28;20422;-80
2021/10/04 08:29:05;;;;;;;5.63;2.43;;;14.40;99.90;;;;;;5000573;28;20455;-80
2021/10/04 08:31:34;;;;;;;5.23;2.80;;;14.70;99.90;;;;;;5001360;28;20468;-81
2021/10/04 08:34:02;;;;;;;5.53;2.57;;;14.50;99.90;;;;;;5001486;28;20782;-82
2021/10/04 08:36:30;;;;;;;4.50;2.70;;;14.60;99.90;;;;;;5015247;28;20514;-82
2021/10/04 08:38:57;;;;;;;3.90;2.60;;;14.70;99.90;;;;;;5027660;28;20446;-81
2021/10/04 08:41:24;;;;;;;3.93;2.27;;;14.70;99.90;;;;;;5036310;28;20464;-80
2021/10/04 08:43:54;;;;;;;3.90;1.90;;;14.70;99.90;;;;;;5028689;28;20463;-79
2021/10/04 08:46:24;;;;;;;4.40;2.90;;;14.60;99.90;;;;;;5027898;28;20417;-81
2021/10/04 08:48:52;;;;;;;8.00;2.60;;;14.80;99.90;;;;;;5021262;28;20960;-81
2021/10/04 08:51:19;;;;;;;4.10;2.10;;;14.90;99.90;;;;;;5020365;28;21014;-81
2021/10/04 08:53:46;;;;;;;3.10;1.60;;;15.00;99.90;;;;;;5022680;28;20512;-81
2021/10/04 08:56:14;;;;;;;5.13;2.53;;;15.00;99.90;;;;;;5026426;28;20456;-81
2021/10/04 08:58:41;;;;;;;4.53;2.50;;;15.10;99.90;;;;;;5021956;28;20832;-80
2021/10/04 09:01:10;;;;;;;3.97;2.37;;;15.00;99.90;;;;;;5021319;28;20867;-82
2021/10/04 09:03:44;;;;;;;3.63;2.30;;;14.80;99.90;;;;;;5020419;28;20432;-82
2021/10/04 09:06:26;;;;;;;5.57;2.27;;;15.00;99.90;;;;;;5020107;28;20450;-81
2021/10/04 09:08:54;;;;;;;4.07;2.23;;;14.90;99.90;;;;;;5021101;28;20894;-80
2021/10/04 09:11:36;;;;;;;3.83;1.87;;;14.90;99.90;;;;;;5019416;28;20503;-81
2021/10/04 09:14:11;;;;;;;3.20;1.50;;;15.20;99.90;;;;;;5019676;28;20413;-80
2021/10/04 09:16:57;;;;;;;3.70;2.00;;;15.30;99.90;;;;;;5019402;28;20860;-78
2021/10/04 09:19:30;;;;;;;4.67;2.30;;;15.30;99.90;;;;;;5020616;28;20452;-83
2021/10/04 09:22:14;;;;;;;4.33;2.70;;;15.30;99.90;;;;;;5020629;28;20452;-80
2021/10/04 09:24:43;;;;;;;4.90;3.53;;;15.30;99.90;;;;;;5022294;28;20923;-80
2021/10/04 09:27:31;;;;;;;4.23;2.73;;;15.10;99.90;;;;;;5018468;28;20836;-81
2021/10/04 09:29:58;;;;;;;4.50;3.03;;;14.90;99.90;;;;;;5020391;28;20534;-80
2021/10/04 09:32:28;;;;;;;4.77;2.97;;;14.90;99.90;;;;;;5019201;28;20517;-81
2021/10/04 09:35:21;;;;;;;3.80;2.90;;;14.90;99.90;;;;;;5020026;28;20485;-82
2021/10/04 09:37:51;;;;;;;3.97;2.13;;;15.00;99.90;;;;;;5020702;28;20501;-81
2021/10/04 09:40:31;;;;;;;4.20;2.53;;;15.30;99.90;;;;;;5019420;28;20523;-81
2021/10/04 09:42:59;;;;;;;3.57;2.13;;;15.30;99.90;;;;;;5018328;28;20981;-81
2021/10/04 09:45:26;;;;;;;5.40;1.90;;;15.10;99.90;;;;;;5018789;28;20565;-79
2021/10/04 09:47:55;;;;;;;3.27;1.73;;;15.20;99.90;;;;;;5019936;28;20449;-81
2021/10/04 09:50:27;;;;;;;3.40;1.70;;;15.40;99.90;;;;;;5019260;28;20462;-81
2021/10/04 09:52:56;;;;;;;3.50;1.70;;;15.20;99.90;;;;;;5026432;28;20480;-79
2021/10/04 09:55:26;;;;;;;3.30;2.00;;;15.50;99.90;;;;;;5029163;28;20425;-79
2021/10/04 09:57:59;;;;;;;4.10;1.80;;;15.60;99.90;;;;;;5025205;28;20471;-79
2021/10/04 10:00:27;;;;;;;4.93;2.30;;;15.80;99.90;;;;;;5018806;28;20480;-81
2021/10/04 10:02:57;;;;;;;3.30;1.57;;;15.90;99.90;;;;;;5019301;28;20478;-82
2021/10/04 10:05:28;;;;;;;3.43;1.43;;;15.60;99.90;;;;;;5019051;28;20502;-81
2021/10/04 10:07:57;;;;;;;2.50;0.87;;;15.60;99.90;;;;;;5018667;28;20615;-81
2021/10/04 10:10:24;;;;;;;2.63;0.97;;;15.70;99.90;;;;;;5017962;28;20457;-80
2021/10/04 10:12:51;;;;;;;2.50;1.07;;;15.40;99.90;;;;;;5018471;28;20488;-80
2021/10/04 10:15:20;;;;;;;2.83;0.90;;;15.50;99.90;;;;;;5018445;28;20465;-81
2021/10/04 10:17:49;;;;;;;2.90;1.10;;;15.60;99.90;;;;;;5018856;28;20995;-81
2021/10/04 10:20:20;;;;;;;5.00;1.63;;;15.60;99.90;;;;;;5031206;28;20482;-79
2021/10/04 10:22:49;;;;;;;3.03;0.97;;;15.70;99.90;;;;;;5027071;28;20453;-80
2021/10/04 10:25:39;;;;;;;3.50;1.80;;;15.70;99.90;;;;;;5019017;28;20533;-81
2021/10/04 10:28:29;;;;;;;2.70;1.10;;;15.60;99.90;;;;;;5019072;28;20434;-82
2021/10/04 10:30:56;;;;;;;2.63;1.07;;;15.70;99.90;;;;;;5018447;28;20752;-81
2021/10/04 10:33:48;;;;;;;2.70;0.87;;;15.90;99.90;;;;;;5017407;28;20435;-82
2021/10/04 10:36:16;;;;;;;2.60;0.83;;;16.00;99.90;;;;;;5018315;28;20800;-80
2021/10/04 10:39:01;;;;;;;4.20;1.37;;;15.70;99.90;;;;;;5018485;28;20569;-81
2021/10/04 10:41:30;;;;;;;3.40;1.20;;;15.60;99.90;;;;;;5019801;28;20553;-81
2021/10/04 10:44:18;;;;;;;3.90;1.03;;;15.60;99.90;;;;;;5031955;28;20440;-80
2021/10/04 10:46:49;;;;;;;3.00;1.10;;;15.60;99.90;;;;;;5019397;28;20466;-82
2021/10/04 10:49:52;;;;;;;3.17;1.10;;;15.70;99.90;;;;;;5019079;28;20506;-82
2021/10/04 10:52:21;;;;;;;4.00;1.30;;;15.80;99.90;;;;;;5014983;28;20528;-82
2021/10/04 10:54:48;;;;;;;3.27;1.53;;;15.70;99.90;;;;;;5018693;28;20459;-82
2021/10/04 10:57:16;;;;;;;3.23;1.47;;;15.70;99.90;;;;;;5018559;28;20441;-82
2021/10/04 10:59:43;;;;;;;2.80;1.17;;;15.60;99.90;;;;;;5017879;28;20878;-79
2021/10/04 11:02:46;;;;;;;4.10;1.50;;;15.70;99.90;;;;;;5017518;28;20441;-80
2021/10/04 11:05:54;;;;;;;4.60;1.43;;;15.70;99.90;;;;;;5017454;28;20467;-81
2021/10/04 11:08:23;;;;;;;4.33;1.40;;;15.70;99.90;;;;;;4977938;28;20447;-82
2021/10/04 11:11:11;;;;;;;4.30;1.27;;;15.70;99.90;;;;;;4978009;28;20552;-82
2021/10/04 11:14:20;;;;;;;3.33;1.10;;;15.50;99.90;;;;;;4978836;28;20547;-81
2021/10/04 11:17:05;;;;;;;2.97;1.33;;;15.60;99.90;;;;;;4980131;28;20549;-80
2021/10/04 11:19:37;;;;;;;3.60;1.17;;;15.70;99.90;;;;;;4982643;28;20442;-80
2021/10/04 11:22:06;;;;;;;4.43;2.37;;;15.70;99.90;;;;;;4979867;28;20938;-81
2021/10/04 11:24:37;;;;;;;3.13;0.97;;;15.70;99.90;;;;;;4998364;28;20428;-79
2021/10/04 11:27:07;;;;;;;4.00;1.27;;;15.80;99.90;;;;;;4998866;28;20422;-82
2021/10/04 11:29:35;;;;;;;3.00;1.20;;;15.90;99.90;;;;;;4997562;28;20435;-81
2021/10/04 11:32:13;;;;;;;3.10;1.40;;;16.10;99.90;;;;;;4999398;28;20594;-79
2021/10/04 11:34:39;;;;;;;3.63;1.50;;;16.00;99.90;;;;;;4997735;28;20419;-81
2021/10/04 11:37:07;;;;;;;3.90;1.03;;;16.00;99.90;;;;;;4997627;28;20464;-81
2021/10/04 11:39:35;;;;;;;4.63;1.60;;;15.80;99.90;;;;;;4999196;28;20773;-81
2021/10/04 11:42:05;;;;;;;2.50;0.90;;;15.90;99.90;;;;;;4996663;28;20480;-81
2021/10/04 11:44:36;;;;;;;3.23;1.07;;;15.90;99.90;;;;;;4996534;28;20441;-80
2021/10/04 11:47:08;;;;;;;3.80;1.57;;;16.10;99.90;;;;;;4997149;28;20778;-81
2021/10/04 11:49:36;;;;;;;5.03;1.20;;;16.20;99.90;;;;;;4997436;28;20441;-82
2021/10/04 11:52:06;;;;;;;3.40;1.20;;;15.90;99.90;;;;;;4997651;28;20478;-81
2021/10/04 11:54:44;;;;;;;3.67;1.47;;;16.00;99.90;;;;;;4998658;28;20510;-80
2021/10/04 11:57:13;;;;;;;5.43;1.00;;;15.90;99.90;;;;;;5007896;28;20430;-81
2021/10/04 11:59:53;;;;;;;2.90;1.13;;;15.90;99.90;;;;;;5003221;28;20532;-81
2021/10/04 12:02:25;;;;;;;2.97;1.23;;;15.90;99.90;;;;;;5001786;28;20738;-80
2021/10/04 12:04:52;;;;;;;2.97;1.03;;;15.90;99.90;;;;;;4998672;28;20484;-79
2021/10/04 12:07:21;;;;;;;3.07;1.30;;;15.90;99.90;;;;;;4997661;28;20477;-80
2021/10/04 12:09:58;;;;;;;2.93;1.10;;;16.10;99.90;;;;;;4996900;28;20445;-80
2021/10/04 12:12:35;;;;;;;4.67;1.40;;;16.00;99.90;;;;;;5003196;28;20941;-79
2021/10/04 12:15:03;;;;;;;2.73;1.17;;;16.10;99.90;;;;;;5017678;28;20434;-80
2021/10/04 12:17:36;;;;;;;6.23;1.93;;;16.30;99.90;;;;;;5017219;28;20800;-80
2021/10/04 12:20:04;;;;;;;2.90;1.30;;;16.30;99.90;;;;;;5016650;28;20937;-80
2021/10/04 12:22:33;;;;;;;2.57;0.90;;;16.20;99.90;;;;;;5018172;28;20476;-80
2021/10/04 12:25:01;;;;;;;3.03;1.30;;;16.30;99.90;;;;;;5017302;28;20494;-80
2021/10/04 12:27:28;;;;;;;2.80;1.30;;;16.30;99.90;;;;;;5017467;28;20521;-81
2021/10/04 12:29:58;;;;;;;4.00;1.57;;;16.00;99.90;;;;;;5019036;28;21050;-81
2021/10/04 12:32:28;;;;;;;2.80;1.10;;;16.10;99.90;;;;;;5023824;28;20487;-78
2021/10/04 12:35:08;;;;;;;3.80;1.73;;;16.20;99.90;;;;;;5025340;28;20498;-82
2021/10/04 12:37:38;;;;;;;3.47;1.70;;;16.10;99.90;;;;;;5024135;28;20502;-80
2021/10/04 12:40:27;;;;;;;3.17;1.47;;;16.20;99.90;;;;;;5021327;28;20552;-80
2021/10/04 12:42:59;;;;;;;3.10;1.10;;;16.20;99.90;;;;;;5027501;28;20495;-79
2021/10/04 12:45:26;;;;;;;3.00;1.30;;;16.30;99.90;;;;;;5023320;28;20465;-80
2021/10/04 12:47:59;;;;;;;2.73;1.00;;;16.50;99.90;;;;;;4987785;28;20427;-81
2021/10/04 12:50:29;;;;;;;2.60;1.00;;;16.50;99.90;;;;;;4988974;28;20442;-80
2021/10/04 12:53:11;;;;;;;2.63;1.07;;;16.30;99.90;;;;;;4978517;28;20562;-81
2021/10/04 12:56:00;;;;;;;2.80;0.90;;;16.30;99.90;;;;;;4983732;28;20439;-80
2021/10/04 12:58:29;;;;;;;3.27;1.27;;;16.60;99.90;;;;;;4976742;28;20852;-81